KRDG/RDG METAR and TAF weather

Enter ICAO airport designator
Station Type Date Time Source
KRDG METAR 2020/07/06 02:54 UTC NOAA

KRDG 060254Z AUTO 00000KT 10SM CLR 25/19 A2996 RMK AO2 SLP147 T02500189 51016


Station Type Date Time Source
KRDG Decoded METAR 2020/07/06 02:54 UTC NOAA

READING REGIONAL AIRPORT, PA, United States (KRDG) 40-22N 075-58W 109M
Jul 05, 2020 - 10:54 PM EDT / 2020.07.06 0254 UTC
Wind: Calm:0
Visibility: 10 mile(s):0
Sky conditions: clear
Temperature: 77.0 F (25.0 C)
Dew Point: 66.0 F (18.9 C)
Relative Humidity: 68%
Pressure (altimeter): 29.96 in. Hg (1014 hPa)
Pressure tendency: 0.05 inches (1.6 hPa) higher than three hours ago
ob: KRDG 060254Z AUTO 00000KT 10SM CLR 25/19 A2996 RMK AO2 SLP147 T02500189 51016
cycle: 3

Station Type Date Time Source
KRDG TAF 2020/07/05 18:24 UTC NOAA

TAF KRDG 051721Z 0518/0618 27007KT P6SM SCT250
FM060100 00000KT P6SM SCT250
FM061400 VRB03KT P6SM SCT030
FM061600 22005KT P6SM BKN060

Example: see airport list